createdAt,value
2018-04-08T00:00:19.135Z,9.3
2018-04-08T00:02:18.938Z,6.7
2018-04-08T00:04:18.718Z,8.8
2018-04-08T00:06:19.341Z,5.9
2018-04-08T00:08:19.143Z,7.8
2018-04-08T00:10:19.466Z,12.2
2018-04-08T00:12:19.284Z,5.8
2018-04-08T00:14:19.059Z,4.2
2018-04-08T00:16:18.956Z,8.4
2018-04-08T00:18:18.838Z,6.3
2018-04-08T00:20:19.617Z,10.4
2018-04-08T00:22:19.378Z,11.7
2018-04-08T00:24:19.166Z,7.1
2018-04-08T00:26:18.877Z,7.7
2018-04-08T00:28:19.701Z,7.7
2018-04-08T00:30:19.484Z,12.6
2018-04-08T00:32:19.295Z,11.7
2018-04-08T00:34:19.053Z,10.9
2018-04-08T00:36:19.211Z,7.2
2018-04-08T00:38:19.004Z,5.3
2018-04-08T00:40:19.252Z,4.6
2018-04-08T00:42:19.044Z,6.8
2018-04-08T00:44:18.836Z,7.6
2018-04-08T00:46:19.447Z,6.2
2018-04-08T00:48:19.232Z,8.6
2018-04-08T00:50:19.042Z,5.1
2018-04-08T00:52:18.826Z,7.1
2018-04-08T00:54:19.621Z,5.5
2018-04-08T00:56:18.886Z,5.2
2018-04-08T00:58:19.678Z,3.6
2018-04-08T01:00:19.482Z,5.1
2018-04-08T01:02:19.304Z,5.5
2018-04-08T01:04:19.090Z,4.1
2018-04-08T01:06:19.557Z,5.8
2018-04-08T01:08:19.360Z,7.7
2018-04-08T01:10:19.685Z,3.2
2018-04-08T01:12:19.462Z,8
2018-04-08T01:14:19.259Z,4.4
2018-04-08T01:16:19.688Z,14.2
2018-04-08T01:18:19.554Z,5.7
2018-04-08T01:20:19.350Z,6
2018-04-08T01:22:19.438Z,5.5
2018-04-08T01:24:19.255Z,7.4
2018-04-08T01:26:18.881Z,4.6
2018-04-08T01:28:19.672Z,3.7
2018-04-08T01:30:19.449Z,3.7
2018-04-08T01:32:19.271Z,4
2018-04-08T01:34:19.092Z,4.7
2018-04-08T01:36:19.261Z,5.7
2018-04-08T01:38:19.057Z,6.7
2018-04-08T01:40:19.331Z,10.7
2018-04-08T01:42:19.139Z,6.6
2018-04-08T01:44:18.931Z,4.7
2018-04-08T01:46:19.177Z,5
2018-04-08T01:48:18.973Z,3.7
2018-04-08T01:50:18.776Z,6.5
2018-04-08T01:52:19.596Z,4.6
2018-04-08T01:54:19.394Z,4.7
2018-04-08T01:56:19.194Z,6.1
2018-04-08T01:58:18.992Z,3.4
2018-04-08T02:00:18.770Z,4.8
2018-04-08T02:02:19.578Z,11.5
2018-04-08T02:04:19.353Z,5.5
2018-04-08T02:06:19.582Z,5.9
2018-04-08T02:08:19.366Z,5
2018-04-08T02:10:19.776Z,9.4
2018-04-08T02:12:18.811Z,4.4
2018-04-08T02:14:19.616Z,2.6
2018-04-08T02:16:18.744Z,5.8
2018-04-08T02:18:19.624Z,8
2018-04-08T02:20:19.418Z,3.1
2018-04-08T02:22:19.070Z,5
2018-04-08T02:24:18.849Z,4.8
2018-04-08T02:26:18.981Z,2.6
2018-04-08T02:28:18.787Z,4.6
2018-04-08T02:30:19.590Z,5.2
2018-04-08T02:32:19.386Z,5.2
2018-04-08T02:34:19.186Z,3.1
2018-04-08T02:36:19.449Z,6.5
2018-04-08T02:38:19.219Z,5.2
2018-04-08T02:40:19.488Z,2.8
2018-04-08T02:42:19.279Z,4.1
2018-04-08T02:44:19.071Z,3.9
2018-04-08T02:46:19.266Z,6.7
2018-04-08T02:48:19.053Z,5.1
2018-04-08T02:50:18.860Z,2.9
2018-04-08T02:52:19.680Z,4.2
2018-04-08T02:54:19.463Z,4.3
2018-04-08T02:56:19.661Z,8.7
2018-04-08T02:58:19.486Z,10.2
2018-04-08T03:00:19.359Z,7.1
2018-04-08T03:02:19.141Z,6.6
2018-04-08T03:04:18.942Z,5.3
2018-04-08T03:06:19.305Z,10.6
2018-04-08T03:08:19.135Z,9.2
2018-04-08T03:10:19.417Z,4.3
2018-04-08T03:12:19.241Z,6.6
2018-04-08T03:14:19.028Z,4.7
2018-04-08T03:16:19.256Z,4.2
2018-04-08T03:18:19.117Z,6.6
2018-04-08T03:20:18.951Z,4.8
2018-04-08T03:22:18.743Z,3.1
2018-04-08T03:24:19.568Z,5.5
2018-04-08T03:26:19.718Z,3.4
2018-04-08T03:28:19.520Z,3.9
2018-04-08T03:30:19.306Z,8.6
2018-04-08T03:32:19.086Z,4.1
2018-04-08T03:34:18.868Z,3
2018-04-08T03:36:19.460Z,5.1
2018-04-08T03:38:19.264Z,3.9
2018-04-08T03:40:19.533Z,6.1
2018-04-08T03:42:19.327Z,5.4
2018-04-08T03:44:19.156Z,3.3
2018-04-08T03:46:18.742Z,6.7
2018-04-08T03:48:19.512Z,4.7
2018-04-08T03:50:19.304Z,3
2018-04-08T03:52:19.082Z,6.4
2018-04-08T03:54:18.852Z,6.5
2018-04-08T03:56:19.309Z,5.1
2018-04-08T03:58:19.095Z,4.4
2018-04-08T04:00:18.885Z,3.2
2018-04-08T04:02:19.669Z,5.6
2018-04-08T04:04:19.448Z,6.1
2018-04-08T04:06:19.018Z,5.2
2018-04-08T04:08:18.810Z,15.2
2018-04-08T04:10:19.181Z,6.9
2018-04-08T04:12:18.966Z,5.2
2018-04-08T04:14:18.768Z,3.6
2018-04-08T04:16:19.476Z,4.3
2018-04-08T04:18:19.369Z,5.6
2018-04-08T04:20:19.214Z,4.7
2018-04-08T04:22:18.992Z,6.3
2018-04-08T04:24:18.762Z,4.7
2018-04-08T04:26:18.905Z,4.3
2018-04-08T04:28:19.706Z,7.7
2018-04-08T04:30:19.491Z,7.8
2018-04-08T04:32:19.260Z,5.8
2018-04-08T04:34:19.031Z,6
2018-04-08T04:36:19.158Z,6.2
2018-04-08T04:38:18.918Z,8.4
2018-04-08T04:40:19.175Z,5
2018-04-08T04:42:18.974Z,6.9
2018-04-08T04:44:18.779Z,6.3
2018-04-08T04:46:18.841Z,5.8
2018-04-08T04:48:19.607Z,5.8
2018-04-08T04:50:19.399Z,6.6
2018-04-08T04:52:19.186Z,5.3
2018-04-08T04:54:18.968Z,6.3
2018-04-08T04:56:19.093Z,5.6
2018-04-08T04:58:18.885Z,7.6
2018-04-08T05:00:19.673Z,8.2
2018-04-08T05:02:19.489Z,5.9
2018-04-08T05:04:19.245Z,3.8
2018-04-08T05:06:18.929Z,8.6
2018-04-08T05:08:18.740Z,4.9
2018-04-08T05:10:18.998Z,6.9
2018-04-08T05:12:18.781Z,4.1
2018-04-08T05:14:19.576Z,5.8
2018-04-08T05:16:19.701Z,5.1
2018-04-08T05:18:19.555Z,8.1
2018-04-08T05:20:19.343Z,6.3
2018-04-08T05:22:19.627Z,8.3
2018-04-08T05:24:19.416Z,4.8
2018-04-08T05:26:19.208Z,6.2
2018-04-08T05:28:18.997Z,5.5
2018-04-08T05:30:18.793Z,7.2
2018-04-08T05:32:19.593Z,7.6
2018-04-08T05:34:19.369Z,8.4
2018-04-08T05:36:18.736Z,7.6
2018-04-08T05:38:19.522Z,8.1
2018-04-08T05:40:18.762Z,7.3
2018-04-08T05:42:19.564Z,17.3
2018-04-08T05:44:19.350Z,4.9
2018-04-08T05:46:18.905Z,5.8
2018-04-08T05:48:19.716Z,5
2018-04-08T05:50:19.517Z,8.2
2018-04-08T05:52:19.300Z,5.8
2018-04-08T05:54:19.144Z,7.2
2018-04-08T05:56:19.279Z,7.8
2018-04-08T05:58:19.065Z,4.5
2018-04-08T06:00:18.838Z,7.2
2018-04-08T06:02:19.614Z,8.7
2018-04-08T06:04:19.395Z,6.5
2018-04-08T06:06:18.985Z,9.8
2018-04-08T06:08:18.770Z,5.8
2018-04-08T06:10:19.026Z,4.6
2018-04-08T06:12:18.801Z,5.4
2018-04-08T06:14:19.589Z,5
2018-04-08T06:16:18.758Z,5.7
2018-04-08T06:18:19.618Z,6.6
2018-04-08T06:20:19.466Z,7.8
2018-04-08T06:22:19.251Z,10.2
2018-04-08T06:24:19.049Z,14.8
2018-04-08T06:26:19.338Z,4.9
2018-04-08T06:28:19.133Z,4.4
2018-04-08T06:30:18.988Z,9.1
2018-04-08T06:32:18.804Z,8.5
2018-04-08T06:34:19.630Z,7.7
2018-04-08T06:36:19.249Z,4.7
2018-04-08T06:38:19.029Z,6.9
2018-04-08T06:40:19.282Z,4.9
2018-04-08T06:42:19.059Z,8.5
2018-04-08T06:44:18.818Z,9.3
2018-04-08T06:46:19.618Z,7.2
2018-04-08T06:48:19.504Z,9
2018-04-08T06:50:19.277Z,6.2
2018-04-08T06:52:19.013Z,5.1
2018-04-08T06:54:18.784Z,6
2018-04-08T06:56:19.349Z,7
2018-04-08T06:58:19.186Z,6.9
2018-04-08T07:00:18.973Z,5.8
2018-04-08T07:02:18.755Z,5.4
2018-04-08T07:04:19.552Z,6.6
2018-04-08T07:06:19.630Z,4.5
2018-04-08T07:08:19.420Z,6.7
2018-04-08T07:10:19.707Z,5.1
2018-04-08T07:12:19.353Z,5.3
2018-04-08T07:14:19.139Z,4.9
2018-04-08T07:16:18.782Z,8.1
2018-04-08T07:18:19.781Z,8
2018-04-08T07:20:19.575Z,5.8
2018-04-08T07:22:19.351Z,6.8
2018-04-08T07:24:19.174Z,8.5
2018-04-08T07:26:18.749Z,8
2018-04-08T07:28:19.552Z,7.8
2018-04-08T07:30:19.377Z,6.8
2018-04-08T07:32:19.176Z,11.8
2018-04-08T07:34:18.973Z,8.9
2018-04-08T07:36:19.591Z,4.9
2018-04-08T07:38:19.361Z,7.1
2018-04-08T07:40:19.674Z,5.9
2018-04-08T07:42:19.477Z,6.3
2018-04-08T07:44:19.265Z,5.2
2018-04-08T07:46:18.904Z,5.5
2018-04-08T07:48:19.693Z,8.6
2018-04-08T07:50:19.467Z,6.1
2018-04-08T07:52:19.267Z,6
2018-04-08T07:54:19.094Z,5.3
2018-04-08T07:56:18.759Z,4.8
2018-04-08T07:58:19.552Z,5.1
2018-04-08T08:00:19.346Z,9.1
2018-04-08T08:02:19.142Z,6.5
2018-04-08T08:04:18.957Z,4.7
2018-04-08T08:06:19.127Z,4.2
2018-04-08T08:08:18.930Z,9.7
2018-04-08T08:10:19.197Z,3.8
2018-04-08T08:12:19.006Z,5.2
2018-04-08T08:14:18.809Z,8.8
2018-04-08T08:16:19.502Z,3.9
2018-04-08T08:18:19.442Z,4.9
2018-04-08T08:20:19.269Z,5.6
2018-04-08T08:22:19.045Z,5.5
2018-04-08T08:24:18.849Z,6.1
2018-04-08T08:26:18.969Z,5.4
2018-04-08T08:28:18.799Z,2.9
2018-04-08T08:30:19.596Z,4.6
2018-04-08T08:32:18.923Z,4
2018-04-08T08:34:18.751Z,7.8
2018-04-08T08:36:18.881Z,4.3
2018-04-08T08:38:19.752Z,4.7
2018-04-08T08:40:19.091Z,4.4
2018-04-08T08:42:18.883Z,4.6
2018-04-08T08:44:19.718Z,5.5
2018-04-08T08:46:18.977Z,4.7
2018-04-08T08:48:18.758Z,5.9
2018-04-08T08:50:19.577Z,5.5
2018-04-08T08:52:19.355Z,7.2
2018-04-08T08:54:19.175Z,5.9
2018-04-08T08:56:18.802Z,5.3
2018-04-08T08:58:19.583Z,4.4
2018-04-08T09:00:19.469Z,11.3
2018-04-08T09:02:19.270Z,4.8
2018-04-08T09:04:19.084Z,4.5
2018-04-08T09:06:19.689Z,8
2018-04-08T09:08:19.509Z,3.5
2018-04-08T09:10:18.803Z,3.5
2018-04-08T09:12:19.607Z,6.8
2018-04-08T09:14:19.439Z,3.3
2018-04-08T09:16:18.833Z,3.3
2018-04-08T09:18:19.725Z,3.1
2018-04-08T09:20:19.534Z,3
2018-04-08T09:22:19.313Z,4.6
2018-04-08T09:24:19.090Z,5.2
2018-04-08T09:26:19.205Z,3.8
2018-04-08T09:28:19.151Z,3.9
2018-04-08T09:30:19.124Z,4.5
2018-04-08T09:32:18.911Z,3.2
2018-04-08T09:34:19.685Z,6.5
2018-04-08T09:36:19.290Z,10.4
2018-04-08T09:38:19.087Z,5
2018-04-08T09:40:19.380Z,4.4
2018-04-08T09:42:19.188Z,3.4
2018-04-08T09:44:19.010Z,8.2
2018-04-08T09:46:19.625Z,10.6
2018-04-08T09:48:19.416Z,36.4
2018-04-08T09:50:19.202Z,17.7
2018-04-08T09:52:18.988Z,27.8
2018-04-08T09:54:18.809Z,89.1
2018-04-08T09:56:19.107Z,43
2018-04-08T09:58:18.905Z,10.5
2018-04-08T10:00:19.731Z,17.1
2018-04-08T10:02:19.554Z,6
2018-04-08T10:04:19.379Z,5.2
2018-04-08T10:06:18.854Z,14
2018-04-08T10:08:19.675Z,13.9
2018-04-08T10:10:19.008Z,41.7
2018-04-08T10:12:18.849Z,9.1
2018-04-08T10:14:19.676Z,6.2
2018-04-08T10:16:19.453Z,4.3
2018-04-08T10:18:19.360Z,4.7
2018-04-08T10:20:19.189Z,5.7
2018-04-08T10:22:19.058Z,2.6
2018-04-08T10:24:18.873Z,3.1
2018-04-08T10:26:19.533Z,2.1
2018-04-08T10:28:19.345Z,3.9
2018-04-08T10:30:19.167Z,8.3
2018-04-08T10:32:18.978Z,6
2018-04-08T10:34:18.781Z,6.2
2018-04-08T10:36:19.412Z,2.5
2018-04-08T10:38:19.232Z,3.1
2018-04-08T10:40:19.525Z,4.6
2018-04-08T10:42:19.346Z,2.2
2018-04-08T10:44:19.173Z,3.1
2018-04-08T10:46:19.328Z,3
2018-04-08T10:48:18.128Z,4.2
2018-04-08T10:50:18.916Z,2.1
2018-04-08T10:52:18.739Z,2.6
2018-04-08T10:54:19.544Z,6.7
2018-04-08T10:56:17.967Z,4
2018-04-08T10:58:18.806Z,3.9
2018-04-08T11:00:19.623Z,4.6
2018-04-08T11:02:19.397Z,12.5
2018-04-08T11:04:19.249Z,6.7
2018-04-08T11:06:18.053Z,3
2018-04-08T11:08:17.857Z,2.5
2018-04-08T11:10:19.134Z,2.4
2018-04-08T11:12:18.944Z,3.1
2018-04-08T11:14:18.737Z,3.1
2018-04-08T11:16:18.336Z,2.4
2018-04-08T11:18:18.224Z,2.4
2018-04-08T11:20:18.054Z,2.3
2018-04-08T11:22:18.871Z,2.2
2018-04-08T11:24:18.700Z,2.3
2018-04-08T11:26:19.566Z,3.4
2018-04-08T11:28:19.380Z,2.5
2018-04-08T11:30:19.205Z,4.1
2018-04-08T11:32:18.772Z,4.1
2018-04-08T11:34:19.587Z,2.6
2018-04-08T11:36:18.301Z,3.7
2018-04-08T11:38:18.123Z,4.2
2018-04-08T11:40:18.437Z,4.2
2018-04-08T11:42:18.278Z,3.7
2018-04-08T11:44:18.081Z,2.4
2018-04-08T11:46:19.182Z,2.4
2018-04-08T11:48:18.008Z,5.5
2018-04-08T11:50:17.846Z,2.8
2018-04-08T11:52:17.777Z,3.5
2018-04-08T11:54:18.580Z,2.7
2018-04-08T11:56:17.818Z,3.5
2018-04-08T11:58:19.649Z,2
2018-04-08T12:00:18.472Z,3.3
2018-04-08T12:02:18.243Z,3.4
2018-04-08T12:04:19.073Z,2.3
2018-04-08T12:06:19.494Z,3.1
2018-04-08T12:08:18.307Z,3.5
2018-04-08T12:10:18.659Z,2.8
2018-04-08T12:12:18.297Z,2.8
2018-04-08T12:14:18.134Z,1.9
2018-04-08T12:16:17.887Z,1.8
2018-04-08T12:18:17.798Z,8.5
2018-04-08T12:20:18.622Z,7.3
2018-04-08T12:22:18.433Z,2.7
2018-04-08T12:24:18.229Z,2.8
2018-04-08T12:26:17.884Z,4
2018-04-08T12:28:19.696Z,3.3
2018-04-08T12:30:18.504Z,3.3
2018-04-08T12:32:18.314Z,2.2
2018-04-08T12:34:18.133Z,2.7
2018-04-08T12:36:17.797Z,3
2018-04-08T12:38:18.641Z,2.5
2018-04-08T12:40:18.947Z,11.5
2018-04-08T12:42:17.799Z,2.7
2018-04-08T12:44:18.635Z,2.3
2018-04-08T12:46:17.782Z,10.5
2018-04-08T12:48:18.627Z,9.3
2018-04-08T12:50:18.466Z,2.9
2018-04-08T12:52:18.280Z,2.7
2018-04-08T12:54:18.095Z,2
2018-04-08T12:56:18.342Z,3.4
2018-04-08T12:58:18.216Z,8.9
2018-04-08T13:00:18.057Z,2.2
2018-04-08T13:02:17.919Z,9.8
2018-04-08T13:04:18.737Z,2.2
2018-04-08T13:06:17.945Z,3
2018-04-08T13:08:17.796Z,4.5
2018-04-08T13:10:18.107Z,3.8
2018-04-08T13:12:17.971Z,3.2
2018-04-08T13:14:17.831Z,7.8
2018-04-08T13:16:18.521Z,2.1
2018-04-08T13:18:18.421Z,3.1
2018-04-08T13:20:18.318Z,2.3
2018-04-08T13:22:17.944Z,3.3
2018-04-08T13:24:17.805Z,5.5
2018-04-08T13:26:17.950Z,2.4
2018-04-08T13:28:17.784Z,3.3
2018-04-08T13:30:18.618Z,2.2
2018-04-08T13:32:18.465Z,2.4
2018-04-08T13:34:18.292Z,3
2018-04-08T13:36:18.107Z,4.8
2018-04-08T13:38:17.963Z,3.5
2018-04-08T13:40:18.263Z,6.4
2018-04-08T13:42:18.068Z,4.4
2018-04-08T13:44:17.861Z,2.9
2018-04-08T13:46:18.072Z,3.3
2018-04-08T13:48:17.969Z,2.6
2018-04-08T13:50:17.830Z,3.4
2018-04-08T13:52:18.657Z,2.9
2018-04-08T13:54:18.508Z,3.3
2018-04-08T13:56:18.741Z,3.7
2018-04-08T13:58:18.570Z,3.6
2018-04-08T14:00:18.386Z,3.2
2018-04-08T14:02:18.202Z,2.7
2018-04-08T14:04:18.024Z,14.7
2018-04-08T14:06:17.866Z,2.7
2018-04-08T14:08:18.669Z,2.8
2018-04-08T14:10:17.937Z,7.7
2018-04-08T14:12:18.166Z,3.4
2018-04-08T14:14:17.974Z,3.8
2018-04-08T14:16:17.890Z,6.2
2018-04-08T14:18:17.809Z,10.6
2018-04-08T14:20:18.630Z,4.5
2018-04-08T14:22:18.457Z,3.7
2018-04-08T14:24:18.304Z,6.8
2018-04-08T14:26:18.468Z,5.2
2018-04-08T14:28:18.296Z,4.6
2018-04-08T14:30:18.169Z,15.5
2018-04-08T14:32:18.265Z,10.5
2018-04-08T14:34:18.077Z,6.1
2018-04-08T14:36:18.657Z,6.2
2018-04-08T14:38:18.481Z,5.5
2018-04-08T14:40:17.835Z,4.8
2018-04-08T14:42:18.423Z,6.4
2018-04-08T14:44:18.239Z,5.3
2018-04-08T14:46:17.971Z,7
2018-04-08T14:48:17.811Z,7.2
2018-04-08T14:50:18.688Z,13.3
2018-04-08T14:52:18.511Z,10.2
2018-04-08T14:54:18.319Z,8.2
2018-04-08T14:56:17.987Z,9
2018-04-08T14:58:17.838Z,9.6
2018-04-08T15:00:18.725Z,6.9
2018-04-08T15:02:18.756Z,6.4
2018-04-08T15:04:18.622Z,9.9
2018-04-08T15:06:17.792Z,7.1
2018-04-08T15:08:18.607Z,19.9
2018-04-08T15:10:17.967Z,8.1
2018-04-08T15:12:17.846Z,8
2018-04-08T15:14:18.674Z,6.2
2018-04-08T15:16:17.823Z,11.2
2018-04-08T15:18:18.734Z,8.2
2018-04-08T15:20:18.568Z,8.7
2018-04-08T15:22:18.381Z,12.4
2018-04-08T15:24:18.199Z,9
2018-04-08T15:26:17.857Z,10.2
2018-04-08T15:28:18.692Z,7.2
2018-04-08T15:30:18.624Z,8.4
2018-04-08T15:32:18.463Z,6.6
2018-04-08T15:34:18.281Z,6.6
2018-04-08T15:36:17.958Z,8.5
2018-04-08T15:38:17.763Z,16.8
2018-04-08T15:40:18.059Z,8.8
2018-04-08T15:42:17.906Z,10.7
2018-04-08T15:44:18.738Z,8.9
2018-04-08T15:46:17.938Z,7.4
2018-04-08T15:48:17.768Z,9
2018-04-08T15:50:18.628Z,6.8
2018-04-08T15:52:18.469Z,8.1
2018-04-08T15:54:18.308Z,12.4
2018-04-08T15:56:18.545Z,7.2
2018-04-08T15:58:18.376Z,8.1
2018-04-08T16:00:18.241Z,8
2018-04-08T16:02:18.050Z,8.2
2018-04-08T16:04:17.847Z,9.5
2018-04-08T16:06:18.050Z,16.7
2018-04-08T16:08:17.920Z,6.8
2018-04-08T16:10:18.231Z,12.9
2018-04-08T16:12:18.041Z,13.2
2018-04-08T16:14:17.898Z,13.3
2018-04-08T16:16:18.284Z,15.7
2018-04-08T16:18:18.219Z,10.7
2018-04-08T16:20:18.048Z,8.1
2018-04-08T16:22:17.953Z,10.1
2018-04-08T16:24:17.780Z,22.7
2018-04-08T16:26:18.084Z,11
2018-04-08T16:28:17.935Z,8.4
2018-04-08T16:30:17.763Z,9.3
2018-04-08T16:32:18.608Z,8.8
2018-04-08T16:34:18.437Z,14.6
2018-04-08T16:36:18.598Z,9.5
2018-04-08T16:38:18.412Z,8
2018-04-08T16:40:18.713Z,8.8
2018-04-08T16:42:18.562Z,11
2018-04-08T16:44:18.384Z,7.4
2018-04-08T16:46:18.177Z,12.7
2018-04-08T16:48:18.029Z,20.1
2018-04-08T16:50:17.871Z,7.5
2018-04-08T16:52:18.722Z,10.2
2018-04-08T16:54:18.572Z,7.5
2018-04-08T16:56:18.062Z,9.1
2018-04-08T16:58:17.858Z,9.4
2018-04-08T17:00:18.693Z,9.1
2018-04-08T17:02:18.545Z,9.5
2018-04-08T17:04:18.392Z,8.4
2018-04-08T17:06:18.576Z,9.6
2018-04-08T17:08:18.377Z,15
2018-04-08T17:10:18.686Z,18.4
2018-04-08T17:12:18.681Z,8
2018-04-08T17:14:18.482Z,11
2018-04-08T17:16:18.629Z,8.7
2018-04-08T17:18:19.575Z,12.1
2018-04-08T17:20:18.407Z,15.7
2018-04-08T17:22:18.012Z,10.2
2018-04-08T17:24:17.811Z,10.9
2018-04-08T17:26:18.242Z,9.6
2018-04-08T17:28:18.062Z,11
2018-04-08T17:30:18.886Z,11.7
2018-04-08T17:32:18.732Z,16.9
2018-04-08T17:34:18.577Z,11.5
2018-04-08T17:36:19.162Z,20.9
2018-04-08T17:38:17.996Z,10.5
2018-04-08T17:40:19.332Z,11
2018-04-08T17:42:18.159Z,14.9
2018-04-08T17:44:18.957Z,13
2018-04-08T17:46:19.636Z,9.7
2018-04-08T17:48:18.471Z,11.6
2018-04-08T17:50:19.280Z,10.7
2018-04-08T17:52:18.095Z,10
2018-04-08T17:54:18.930Z,13.3
2018-04-08T17:56:18.348Z,12.5
2018-04-08T17:58:18.176Z,10.9
2018-04-08T18:00:17.979Z,11.8
2018-04-08T18:02:18.602Z,19.1
2018-04-08T18:04:19.420Z,16.1
2018-04-08T18:06:18.151Z,12
2018-04-08T18:08:18.971Z,17.5
2018-04-08T18:10:19.263Z,23
2018-04-08T18:12:17.932Z,25.8
2018-04-08T18:14:18.768Z,20.1
2018-04-08T18:16:18.148Z,21.6
2018-04-08T18:18:19.045Z,31.4
2018-04-08T18:20:18.877Z,16.7
2018-04-08T18:22:19.496Z,11.8
2018-04-08T18:24:18.344Z,16
2018-04-08T18:26:19.082Z,13.9
2018-04-08T18:28:18.905Z,11.7
2018-04-08T18:30:19.712Z,12.2
2018-04-08T18:32:19.555Z,10.7
2018-04-08T18:34:19.352Z,18.3
2018-04-08T18:36:19.530Z,15.8
2018-04-08T18:38:19.323Z,10.9
2018-04-08T18:40:19.610Z,17.2
2018-04-08T18:42:19.210Z,15.4
2018-04-08T18:44:19.007Z,11.8
2018-04-08T18:46:19.685Z,19.1
2018-04-08T18:48:19.489Z,11.2
2018-04-08T18:50:19.291Z,23.9
2018-04-08T18:52:19.094Z,13.7
2018-04-08T18:54:18.904Z,9.9
2018-04-08T18:56:19.563Z,13.8
2018-04-08T18:58:19.338Z,12.6
2018-04-08T19:00:19.166Z,11
2018-04-08T19:02:18.979Z,12.1
2018-04-08T19:04:18.791Z,15.4
2018-04-08T19:06:18.888Z,15.3
2018-04-08T19:08:19.692Z,13.5
2018-04-08T19:10:19.082Z,32.4
2018-04-08T19:12:18.897Z,18
2018-04-08T19:14:19.715Z,21.9
2018-04-08T19:16:18.533Z,15.7
2018-04-08T19:18:19.448Z,19.2
2018-04-08T19:20:19.246Z,15
2018-04-08T19:22:18.902Z,22.2
2018-04-08T19:24:19.683Z,15.3
2018-04-08T19:26:19.031Z,15.1
2018-04-08T19:28:18.861Z,20.4
2018-04-08T19:30:19.667Z,17.7
2018-04-08T19:32:19.464Z,19
2018-04-08T19:34:19.277Z,17.6
2018-04-08T19:36:19.429Z,25.6
2018-04-08T19:38:19.224Z,14.7
2018-04-08T19:40:19.512Z,41.3
2018-04-08T19:42:19.326Z,19.9
2018-04-08T19:44:19.132Z,14.7
2018-04-08T19:46:19.137Z,17.3
2018-04-08T19:48:18.944Z,17.4
2018-04-08T19:50:18.751Z,17.4
2018-04-08T19:52:19.426Z,16.8
2018-04-08T19:54:19.239Z,23.7
2018-04-08T19:56:19.421Z,18.5
2018-04-08T19:58:19.252Z,18.1
2018-04-08T20:00:19.180Z,18.8
2018-04-08T20:02:18.960Z,18.2
2018-04-08T20:04:18.905Z,22.5
2018-04-08T20:06:19.639Z,18.9
2018-04-08T20:08:19.434Z,18.1
2018-04-08T20:10:19.693Z,21
2018-04-08T20:12:19.471Z,16.6
2018-04-08T20:14:19.256Z,13.6
2018-04-08T20:16:18.894Z,18
2018-04-08T20:18:18.804Z,23.9
2018-04-08T20:20:19.619Z,14.5
2018-04-08T20:22:19.430Z,17.5
2018-04-08T20:24:19.264Z,19.2
2018-04-08T20:26:19.393Z,14.8
2018-04-08T20:28:19.219Z,16.9
2018-04-08T20:30:19.048Z,18.1
2018-04-08T20:32:19.699Z,14.9
2018-04-08T20:34:19.512Z,15.2
2018-04-08T20:36:19.370Z,17.8
2018-04-08T20:38:19.178Z,23.9
2018-04-08T20:40:19.555Z,27.1
2018-04-08T20:42:19.379Z,28.7
2018-04-08T20:44:19.176Z,22.4
2018-04-08T20:46:19.441Z,22.4
2018-04-08T20:48:19.255Z,21.3
2018-04-08T20:50:19.076Z,16.2
2018-04-08T20:52:18.877Z,23.7
2018-04-08T20:54:19.668Z,22.9
2018-04-08T20:56:19.330Z,21.8
2018-04-08T20:58:19.119Z,25.4
2018-04-08T21:00:18.940Z,18.7
2018-04-08T21:02:18.730Z,22.5
2018-04-08T21:04:19.525Z,17.3
2018-04-08T21:06:18.844Z,23.7
2018-04-08T21:08:19.650Z,24.7
2018-04-08T21:10:18.974Z,26.4
2018-04-08T21:12:18.795Z,28.9
2018-04-08T21:14:19.575Z,28.6
2018-04-08T21:16:19.292Z,28.9
2018-04-08T21:18:19.155Z,29
2018-04-08T21:20:18.986Z,23.4
2018-04-08T21:22:18.789Z,27.4
2018-04-08T21:24:19.583Z,25.7
2018-04-08T21:26:19.690Z,27
2018-04-08T21:28:19.494Z,23.3
2018-04-08T21:30:19.296Z,26.8
2018-04-08T21:32:19.102Z,39.6
2018-04-08T21:34:18.915Z,31.9
2018-04-08T21:36:19.528Z,32.7
2018-04-08T21:38:19.318Z,28.2
2018-04-08T21:40:19.638Z,38.5
2018-04-08T21:42:19.453Z,33.5
2018-04-08T21:44:19.243Z,36.9
2018-04-08T21:46:19.138Z,33.3
2018-04-08T21:48:18.974Z,31.3
2018-04-08T21:50:18.804Z,33.3
2018-04-08T21:52:19.601Z,36.6
2018-04-08T21:54:19.404Z,31.1
2018-04-08T21:56:18.982Z,31.3
2018-04-08T21:58:18.868Z,30.1
2018-04-08T22:00:19.670Z,31.6
2018-04-08T22:02:19.450Z,20.8
2018-04-08T22:04:19.265Z,29.6
2018-04-08T22:06:18.829Z,30.6
2018-04-08T22:08:19.628Z,24.6
2018-04-08T22:10:18.892Z,31.3
2018-04-08T22:12:19.677Z,30.8
2018-04-08T22:14:19.473Z,29.6
2018-04-08T22:16:19.609Z,32.8
2018-04-08T22:18:19.463Z,36.9
2018-04-08T22:20:19.247Z,53.3
2018-04-08T22:22:19.020Z,37.7
2018-04-08T22:24:18.844Z,43.1
2018-04-08T22:26:18.915Z,40.3
2018-04-08T22:28:19.702Z,58.1
2018-04-08T22:30:19.575Z,33.6
2018-04-08T22:32:19.382Z,30.9
2018-04-08T22:34:19.161Z,29.7
2018-04-08T22:36:19.335Z,28.4
2018-04-08T22:38:19.125Z,30.9
2018-04-08T22:40:19.490Z,26.6
2018-04-08T22:42:19.255Z,23.1
2018-04-08T22:44:19.038Z,23.2
2018-04-08T22:46:19.627Z,29.8
2018-04-08T22:48:19.417Z,22.8
2018-04-08T22:50:19.212Z,34.6
2018-04-08T22:52:19.018Z,21.8
2018-04-08T22:54:18.806Z,25.7
2018-04-08T22:56:19.402Z,29.3
2018-04-08T22:58:19.199Z,21.8
2018-04-08T23:00:18.996Z,25.1
2018-04-08T23:02:18.807Z,22.5
2018-04-08T23:04:19.584Z,21.6
2018-04-08T23:06:18.785Z,25.1
2018-04-08T23:08:19.595Z,22.4
2018-04-08T23:10:18.903Z,24.3
2018-04-08T23:12:19.562Z,25.5
2018-04-08T23:14:19.370Z,33.6
2018-04-08T23:16:19.171Z,26
2018-04-08T23:18:19.057Z,29.1
2018-04-08T23:20:18.918Z,27.7
2018-04-08T23:22:19.491Z,27.5
2018-04-08T23:24:19.285Z,29.2
2018-04-08T23:26:18.917Z,25.2
2018-04-08T23:28:19.708Z,18.5
2018-04-08T23:30:19.494Z,21.9
2018-04-08T23:32:19.298Z,22.1
2018-04-08T23:34:19.112Z,21.2
2018-04-08T23:36:19.366Z,21.9
2018-04-08T23:38:19.158Z,36.5
2018-04-08T23:40:19.639Z,24.6
2018-04-08T23:42:19.427Z,26.3
2018-04-08T23:44:19.210Z,24.3
2018-04-08T23:46:19.344Z,29.7
2018-04-08T23:48:19.151Z,37.2
2018-04-08T23:50:19.146Z,26.6
2018-04-08T23:52:18.922Z,21.6
2018-04-08T23:54:19.708Z,25.7
2018-04-08T23:56:19.492Z,23.8
2018-04-08T23:58:19.255Z,29.9
